sensor_id;sensor_type;location;lat;lon;timestamp;temperature;humidity
5792;DHT22;2922;53.482;10.006;2023-06-26T00:00:19;21.70;99.90
5792;DHT22;2922;53.482;10.006;2023-06-26T00:02:45;21.60;99.90
5792;DHT22;2922;53.482;10.006;2023-06-26T00:05:11;21.60;99.90
5792;DHT22;2922;53.482;10.006;2023-06-26T00:07:36;21.50;99.90
5792;DHT22;2922;53.482;10.006;2023-06-26T00:10:05;21.50;99.90
5792;DHT22;2922;53.482;10.006;2023-06-26T00:12:31;21.50;99.90
5792;DHT22;2922;53.482;10.006;2023-06-26T00:14:57;21.40;99.90
5792;DHT22;2922;53.482;10.006;2023-06-26T00:17:23;21.30;99.90
5792;DHT22;2922;53.482;10.006;2023-06-26T00:19:50;21.30;99.90
5792;DHT22;2922;53.482;10.006;2023-06-26T00:22:15;21.30;99.90
5792;DHT22;2922;53.482;10.006;2023-06-26T00:24:41;21.30;99.90
5792;DHT22;2922;53.482;10.006;2023-06-26T00:27:07;21.30;99.90
5792;DHT22;2922;53.482;10.006;2023-06-26T00:29:32;21.20;99.90
5792;DHT22;2922;53.482;10.006;2023-06-26T00:31:58;21.20;99.90
5792;DHT22;2922;53.482;10.006;2023-06-26T00:34:24;21.10;99.90
5792;DHT22;2922;53.482;10.006;2023-06-26T00:36:49;21.10;99.90
5792;DHT22;2922;53.482;10.006;2023-06-26T00:39:15;21.10;99.90
5792;DHT22;2922;53.482;10.006;2023-06-26T00:41:41;21.10;99.90
5792;DHT22;2922;53.482;10.006;2023-06-26T00:44:07;21.00;99.90
5792;DHT22;2922;53.482;10.006;2023-06-26T00:46:33;21.00;99.90
5792;DHT22;2922;53.482;10.006;2023-06-26T00:49:00;20.90;99.90
5792;DHT22;2922;53.482;10.006;2023-06-26T00:51:29;20.90;99.90
5792;DHT22;2922;53.482;10.006;2023-06-26T00:53:55;20.90;99.90
5792;DHT22;2922;53.482;10.006;2023-06-26T00:56:21;20.80;99.90
5792;DHT22;2922;53.482;10.006;2023-06-26T00:58:47;20.80;99.90
5792;DHT22;2922;53.482;10.006;2023-06-26T01:01:13;20.80;99.90
5792;DHT22;2922;53.482;10.006;2023-06-26T01:03:43;20.70;99.90
5792;DHT22;2922;53.482;10.006;2023-06-26T01:06:11;20.70;99.90
5792;DHT22;2922;53.482;10.006;2023-06-26T01:08:39;20.70;99.90
5792;DHT22;2922;53.482;10.006;2023-06-26T01:11:06;20.70;99.90
5792;DHT22;2922;53.482;10.006;2023-06-26T01:13:32;20.60;99.90
5792;DHT22;2922;53.482;10.006;2023-06-26T01:15:59;20.60;99.90
5792;DHT22;2922;53.482;10.006;2023-06-26T01:18:25;20.50;99.90
5792;DHT22;2922;53.482;10.006;2023-06-26T01:20:52;20.50;99.90
5792;DHT22;2922;53.482;10.006;2023-06-26T01:23:26;20.50;99.90
5792;DHT22;2922;53.482;10.006;2023-06-26T01:28:34;20.40;99.90
5792;DHT22;2922;53.482;10.006;2023-06-26T01:31:00;20.40;99.90
5792;DHT22;2922;53.482;10.006;2023-06-26T01:33:27;20.40;99.90
5792;DHT22;2922;53.482;10.006;2023-06-26T01:35:53;20.40;99.90
5792;DHT22;2922;53.482;10.006;2023-06-26T01:38:20;20.40;99.90
5792;DHT22;2922;53.482;10.006;2023-06-26T01:40:46;20.30;99.90
5792;DHT22;2922;53.482;10.006;2023-06-26T01:45:51;20.30;99.90
5792;DHT22;2922;53.482;10.006;2023-06-26T01:48:20;20.30;99.90
5792;DHT22;2922;53.482;10.006;2023-06-26T01:50:51;20.20;99.90
5792;DHT22;2922;53.482;10.006;2023-06-26T01:53:23;20.20;99.90
5792;DHT22;2922;53.482;10.006;2023-06-26T01:55:50;20.20;99.90
5792;DHT22;2922;53.482;10.006;2023-06-26T01:58:18;20.20;99.90
5792;DHT22;2922;53.482;10.006;2023-06-26T02:00:46;20.20;99.90
5792;DHT22;2922;53.482;10.006;2023-06-26T02:03:12;20.20;99.90
5792;DHT22;2922;53.482;10.006;2023-06-26T02:05:37;20.20;99.90
5792;DHT22;2922;53.482;10.006;2023-06-26T02:08:03;20.10;99.90
5792;DHT22;2922;53.482;10.006;2023-06-26T02:10:29;20.10;99.90
5792;DHT22;2922;53.482;10.006;2023-06-26T02:12:55;20.10;99.90
5792;DHT22;2922;53.482;10.006;2023-06-26T02:15:20;20.00;99.90
5792;DHT22;2922;53.482;10.006;2023-06-26T02:17:47;20.00;99.90
5792;DHT22;2922;53.482;10.006;2023-06-26T02:20:14;20.00;99.90
5792;DHT22;2922;53.482;10.006;2023-06-26T02:22:41;20.00;99.90
5792;DHT22;2922;53.482;10.006;2023-06-26T02:25:07;20.00;99.90
5792;DHT22;2922;53.482;10.006;2023-06-26T02:27:32;19.90;99.90
5792;DHT22;2922;53.482;10.006;2023-06-26T02:29:58;19.90;99.90
5792;DHT22;2922;53.482;10.006;2023-06-26T02:32:23;19.90;99.90
5792;DHT22;2922;53.482;10.006;2023-06-26T02:34:49;19.80;99.90
5792;DHT22;2922;53.482;10.006;2023-06-26T02:37:17;19.80;99.90
5792;DHT22;2922;53.482;10.006;2023-06-26T02:39:43;19.80;99.90
5792;DHT22;2922;53.482;10.006;2023-06-26T02:42:08;19.80;99.90
5792;DHT22;2922;53.482;10.006;2023-06-26T02:44:34;19.80;99.90
5792;DHT22;2922;53.482;10.006;2023-06-26T02:46:59;19.70;99.90
5792;DHT22;2922;53.482;10.006;2023-06-26T02:49:25;19.70;99.90
5792;DHT22;2922;53.482;10.006;2023-06-26T02:51:50;19.70;99.90
5792;DHT22;2922;53.482;10.006;2023-06-26T02:54:16;19.60;99.90
5792;DHT22;2922;53.482;10.006;2023-06-26T02:56:41;19.60;99.90
5792;DHT22;2922;53.482;10.006;2023-06-26T02:59:07;19.60;99.90
5792;DHT22;2922;53.482;10.006;2023-06-26T03:01:33;19.60;99.90
5792;DHT22;2922;53.482;10.006;2023-06-26T03:03:58;19.60;99.90
5792;DHT22;2922;53.482;10.006;2023-06-26T03:06:26;19.60;99.90
5792;DHT22;2922;53.482;10.006;2023-06-26T03:08:53;19.60;99.90
5792;DHT22;2922;53.482;10.006;2023-06-26T03:11:19;19.60;99.90
5792;DHT22;2922;53.482;10.006;2023-06-26T03:13:45;19.60;99.90
5792;DHT22;2922;53.482;10.006;2023-06-26T03:16:10;19.60;99.90
5792;DHT22;2922;53.482;10.006;2023-06-26T03:18:36;19.60;99.90
5792;DHT22;2922;53.482;10.006;2023-06-26T03:21:02;19.60;99.90
5792;DHT22;2922;53.482;10.006;2023-06-26T03:23:27;19.50;99.90
5792;DHT22;2922;53.482;10.006;2023-06-26T03:25:53;19.50;99.90
5792;DHT22;2922;53.482;10.006;2023-06-26T03:28:19;19.50;99.90
5792;DHT22;2922;53.482;10.006;2023-06-26T03:30:44;19.50;99.90
5792;DHT22;2922;53.482;10.006;2023-06-26T03:33:10;19.50;99.90
5792;DHT22;2922;53.482;10.006;2023-06-26T03:35:36;19.50;99.90
5792;DHT22;2922;53.482;10.006;2023-06-26T03:38:03;19.50;99.90
5792;DHT22;2922;53.482;10.006;2023-06-26T03:40:28;19.50;99.90
5792;DHT22;2922;53.482;10.006;2023-06-26T03:42:54;19.50;99.90
5792;DHT22;2922;53.482;10.006;2023-06-26T03:45:19;19.50;99.90
5792;DHT22;2922;53.482;10.006;2023-06-26T03:47:45;19.50;99.90
5792;DHT22;2922;53.482;10.006;2023-06-26T03:50:14;19.50;99.90
5792;DHT22;2922;53.482;10.006;2023-06-26T03:52:40;19.50;99.90
5792;DHT22;2922;53.482;10.006;2023-06-26T03:55:05;19.60;99.90
5792;DHT22;2922;53.482;10.006;2023-06-26T03:57:31;19.50;99.90
5792;DHT22;2922;53.482;10.006;2023-06-26T03:59:57;19.60;99.90
5792;DHT22;2922;53.482;10.006;2023-06-26T04:02:22;19.60;99.90
5792;DHT22;2922;53.482;10.006;2023-06-26T04:04:48;19.50;99.90
5792;DHT22;2922;53.482;10.006;2023-06-26T04:07:14;19.60;99.90
5792;DHT22;2922;53.482;10.006;2023-06-26T04:09:39;19.60;99.90
5792;DHT22;2922;53.482;10.006;2023-06-26T04:12:06;19.60;99.90
5792;DHT22;2922;53.482;10.006;2023-06-26T04:14:31;19.60;99.90
5792;DHT22;2922;53.482;10.006;2023-06-26T04:16:58;19.70;99.90
5792;DHT22;2922;53.482;10.006;2023-06-26T04:19:27;19.70;99.90
5792;DHT22;2922;53.482;10.006;2023-06-26T04:21:52;19.70;99.90
5792;DHT22;2922;53.482;10.006;2023-06-26T04:24:18;19.70;99.90
5792;DHT22;2922;53.482;10.006;2023-06-26T04:26:43;19.70;99.90
5792;DHT22;2922;53.482;10.006;2023-06-26T04:29:10;19.80;99.90
5792;DHT22;2922;53.482;10.006;2023-06-26T04:31:36;19.80;99.90
5792;DHT22;2922;53.482;10.006;2023-06-26T04:34:01;19.80;99.90
5792;DHT22;2922;53.482;10.006;2023-06-26T04:36:27;19.80;99.90
5792;DHT22;2922;53.482;10.006;2023-06-26T04:38:57;19.90;99.90
5792;DHT22;2922;53.482;10.006;2023-06-26T04:41:24;19.90;99.90
5792;DHT22;2922;53.482;10.006;2023-06-26T04:43:50;20.00;99.90
5792;DHT22;2922;53.482;10.006;2023-06-26T04:46:16;20.00;99.90
5792;DHT22;2922;53.482;10.006;2023-06-26T04:48:41;20.00;99.90
5792;DHT22;2922;53.482;10.006;2023-06-26T04:51:08;20.00;99.90
5792;DHT22;2922;53.482;10.006;2023-06-26T04:53:33;20.10;99.90
5792;DHT22;2922;53.482;10.006;2023-06-26T04:55:59;20.10;99.90
5792;DHT22;2922;53.482;10.006;2023-06-26T04:58:24;20.10;99.90
5792;DHT22;2922;53.482;10.006;2023-06-26T05:00:50;20.20;99.90
5792;DHT22;2922;53.482;10.006;2023-06-26T05:03:17;20.20;99.90
5792;DHT22;2922;53.482;10.006;2023-06-26T05:05:43;20.30;99.90
5792;DHT22;2922;53.482;10.006;2023-06-26T05:08:22;20.30;99.90
5792;DHT22;2922;53.482;10.006;2023-06-26T05:10:48;20.30;99.90
5792;DHT22;2922;53.482;10.006;2023-06-26T05:13:14;20.40;99.90
5792;DHT22;2922;53.482;10.006;2023-06-26T05:15:45;20.40;99.90
5792;DHT22;2922;53.482;10.006;2023-06-26T05:18:10;20.50;99.90
5792;DHT22;2922;53.482;10.006;2023-06-26T05:20:37;20.50;99.90
5792;DHT22;2922;53.482;10.006;2023-06-26T05:23:03;20.50;99.90
5792;DHT22;2922;53.482;10.006;2023-06-26T05:25:32;20.60;99.90
5792;DHT22;2922;53.482;10.006;2023-06-26T05:28:00;20.60;99.90
5792;DHT22;2922;53.482;10.006;2023-06-26T05:30:26;20.70;99.90
5792;DHT22;2922;53.482;10.006;2023-06-26T05:32:55;20.80;99.90
5792;DHT22;2922;53.482;10.006;2023-06-26T05:35:22;20.80;99.90
5792;DHT22;2922;53.482;10.006;2023-06-26T05:37:51;20.90;99.90
5792;DHT22;2922;53.482;10.006;2023-06-26T05:40:18;21.00;99.90
5792;DHT22;2922;53.482;10.006;2023-06-26T05:42:44;21.10;99.90
5792;DHT22;2922;53.482;10.006;2023-06-26T05:45:10;21.20;99.90
5792;DHT22;2922;53.482;10.006;2023-06-26T05:47:36;21.20;99.90
5792;DHT22;2922;53.482;10.006;2023-06-26T05:50:03;21.30;99.90
5792;DHT22;2922;53.482;10.006;2023-06-26T05:52:29;21.40;99.90
5792;DHT22;2922;53.482;10.006;2023-06-26T05:54:55;21.50;99.90
5792;DHT22;2922;53.482;10.006;2023-06-26T05:57:25;21.60;99.90
5792;DHT22;2922;53.482;10.006;2023-06-26T05:59:51;21.60;99.90
5792;DHT22;2922;53.482;10.006;2023-06-26T06:02:16;21.80;99.90
5792;DHT22;2922;53.482;10.006;2023-06-26T06:04:42;21.80;99.90
5792;DHT22;2922;53.482;10.006;2023-06-26T06:07:07;22.00;99.90
5792;DHT22;2922;53.482;10.006;2023-06-26T06:09:33;22.10;99.90
5792;DHT22;2922;53.482;10.006;2023-06-26T06:11:59;22.20;99.90
5792;DHT22;2922;53.482;10.006;2023-06-26T06:14:25;22.30;99.90
5792;DHT22;2922;53.482;10.006;2023-06-26T06:16:50;22.40;99.90
5792;DHT22;2922;53.482;10.006;2023-06-26T06:19:16;22.60;99.90
5792;DHT22;2922;53.482;10.006;2023-06-26T06:21:41;22.60;99.90
5792;DHT22;2922;53.482;10.006;2023-06-26T06:24:08;22.80;99.90
5792;DHT22;2922;53.482;10.006;2023-06-26T06:26:35;22.90;99.90
5792;DHT22;2922;53.482;10.006;2023-06-26T06:29:00;23.10;99.90
5792;DHT22;2922;53.482;10.006;2023-06-26T06:31:26;23.20;99.90
5792;DHT22;2922;53.482;10.006;2023-06-26T06:33:54;23.30;99.90
5792;DHT22;2922;53.482;10.006;2023-06-26T06:36:19;23.40;99.90
5792;DHT22;2922;53.482;10.006;2023-06-26T06:38:45;23.60;99.90
5792;DHT22;2922;53.482;10.006;2023-06-26T06:41:11;23.70;99.90
5792;DHT22;2922;53.482;10.006;2023-06-26T06:43:38;23.80;99.90
5792;DHT22;2922;53.482;10.006;2023-06-26T06:46:04;24.00;99.90
5792;DHT22;2922;53.482;10.006;2023-06-26T06:48:29;24.00;99.90
5792;DHT22;2922;53.482;10.006;2023-06-26T06:50:55;24.10;99.90
5792;DHT22;2922;53.482;10.006;2023-06-26T06:53:20;24.20;99.90
5792;DHT22;2922;53.482;10.006;2023-06-26T06:55:46;24.40;99.90
5792;DHT22;2922;53.482;10.006;2023-06-26T06:58:12;24.50;99.90
5792;DHT22;2922;53.482;10.006;2023-06-26T07:00:37;24.60;99.90
5792;DHT22;2922;53.482;10.006;2023-06-26T07:03:03;24.70;99.90
5792;DHT22;2922;53.482;10.006;2023-06-26T07:05:29;24.90;99.90
5792;DHT22;2922;53.482;10.006;2023-06-26T07:07:55;25.00;99.90
5792;DHT22;2922;53.482;10.006;2023-06-26T07:10:21;25.10;99.90
5792;DHT22;2922;53.482;10.006;2023-06-26T07:12:46;25.30;99.90
5792;DHT22;2922;53.482;10.006;2023-06-26T07:15:12;25.40;99.90
5792;DHT22;2922;53.482;10.006;2023-06-26T07:17:37;25.60;99.90
5792;DHT22;2922;53.482;10.006;2023-06-26T07:20:04;25.70;99.90
5792;DHT22;2922;53.482;10.006;2023-06-26T07:22:34;25.90;99.90
5792;DHT22;2922;53.482;10.006;2023-06-26T07:25:00;26.10;99.90
5792;DHT22;2922;53.482;10.006;2023-06-26T07:27:26;26.30;99.90
5792;DHT22;2922;53.482;10.006;2023-06-26T07:29:51;26.40;99.90
5792;DHT22;2922;53.482;10.006;2023-06-26T07:32:17;26.50;99.90
5792;DHT22;2922;53.482;10.006;2023-06-26T07:34:42;26.60;99.90
5792;DHT22;2922;53.482;10.006;2023-06-26T07:37:08;26.70;99.90
5792;DHT22;2922;53.482;10.006;2023-06-26T07:39:33;26.80;99.90
5792;DHT22;2922;53.482;10.006;2023-06-26T07:41:59;26.80;99.90
5792;DHT22;2922;53.482;10.006;2023-06-26T07:44:25;27.00;99.90
5792;DHT22;2922;53.482;10.006;2023-06-26T07:46:51;27.20;99.90
5792;DHT22;2922;53.482;10.006;2023-06-26T07:49:16;27.30;99.90
5792;DHT22;2922;53.482;10.006;2023-06-26T07:51:42;27.50;99.90
5792;DHT22;2922;53.482;10.006;2023-06-26T07:54:07;27.70;99.90
5792;DHT22;2922;53.482;10.006;2023-06-26T07:56:58;27.80;99.90
5792;DHT22;2922;53.482;10.006;2023-06-26T07:59:26;27.80;99.90
5792;DHT22;2922;53.482;10.006;2023-06-26T08:01:53;27.60;99.90
5792;DHT22;2922;53.482;10.006;2023-06-26T08:04:20;27.80;99.90
5792;DHT22;2922;53.482;10.006;2023-06-26T08:06:51;28.10;99.90
5792;DHT22;2922;53.482;10.006;2023-06-26T08:09:18;28.30;99.90
5792;DHT22;2922;53.482;10.006;2023-06-26T08:11:44;28.50;99.90
5792;DHT22;2922;53.482;10.006;2023-06-26T08:14:10;28.60;99.90
5792;DHT22;2922;53.482;10.006;2023-06-26T08:16:40;28.60;99.90
5792;DHT22;2922;53.482;10.006;2023-06-26T08:19:06;28.50;99.90
5792;DHT22;2922;53.482;10.006;2023-06-26T08:21:32;28.50;99.90
5792;DHT22;2922;53.482;10.006;2023-06-26T08:23:57;28.50;99.90
5792;DHT22;2922;53.482;10.006;2023-06-26T08:26:23;28.60;99.90
5792;DHT22;2922;53.482;10.006;2023-06-26T08:28:48;28.80;99.90
5792;DHT22;2922;53.482;10.006;2023-06-26T08:31:14;28.90;99.90
5792;DHT22;2922;53.482;10.006;2023-06-26T08:33:40;29.20;99.90
5792;DHT22;2922;53.482;10.006;2023-06-26T08:36:05;29.40;99.90
5792;DHT22;2922;53.482;10.006;2023-06-26T08:38:31;29.60;99.90
5792;DHT22;2922;53.482;10.006;2023-06-26T08:40:56;29.50;99.90
5792;DHT22;2922;53.482;10.006;2023-06-26T08:43:22;29.40;99.90
5792;DHT22;2922;53.482;10.006;2023-06-26T08:45:48;29.30;99.90
5792;DHT22;2922;53.482;10.006;2023-06-26T08:48:17;29.40;99.90
5792;DHT22;2922;53.482;10.006;2023-06-26T08:50:43;29.40;99.90
5792;DHT22;2922;53.482;10.006;2023-06-26T08:53:39;29.30;99.90
5792;DHT22;2922;53.482;10.006;2023-06-26T08:56:07;29.20;99.90
5792;DHT22;2922;53.482;10.006;2023-06-26T08:58:34;28.90;99.90
5792;DHT22;2922;53.482;10.006;2023-06-26T09:01:02;29.00;99.90
5792;DHT22;2922;53.482;10.006;2023-06-26T09:03:28;28.90;99.90
5792;DHT22;2922;53.482;10.006;2023-06-26T09:05:53;28.90;99.90
5792;DHT22;2922;53.482;10.006;2023-06-26T09:08:19;28.80;99.90
5792;DHT22;2922;53.482;10.006;2023-06-26T09:10:44;28.90;99.90
5792;DHT22;2922;53.482;10.006;2023-06-26T09:13:10;28.80;99.90
5792;DHT22;2922;53.482;10.006;2023-06-26T09:15:42;28.70;99.90
5792;DHT22;2922;53.482;10.006;2023-06-26T09:18:08;28.80;99.90
5792;DHT22;2922;53.482;10.006;2023-06-26T09:20:33;28.90;99.90
5792;DHT22;2922;53.482;10.006;2023-06-26T09:23:00;29.00;99.90
5792;DHT22;2922;53.482;10.006;2023-06-26T09:25:26;29.40;99.90
5792;DHT22;2922;53.482;10.006;2023-06-26T09:27:52;29.40;99.90
5792;DHT22;2922;53.482;10.006;2023-06-26T09:30:18;29.20;99.90
5792;DHT22;2922;53.482;10.006;2023-06-26T09:32:44;29.20;99.90
5792;DHT22;2922;53.482;10.006;2023-06-26T09:35:10;28.80;99.90
5792;DHT22;2922;53.482;10.006;2023-06-26T09:37:37;28.70;99.90
5792;DHT22;2922;53.482;10.006;2023-06-26T09:40:04;28.50;99.90
5792;DHT22;2922;53.482;10.006;2023-06-26T09:42:30;28.40;99.90
5792;DHT22;2922;53.482;10.006;2023-06-26T09:44:56;28.10;99.90
5792;DHT22;2922;53.482;10.006;2023-06-26T09:47:23;27.70;99.90
5792;DHT22;2922;53.482;10.006;2023-06-26T09:49:49;27.50;99.90
5792;DHT22;2922;53.482;10.006;2023-06-26T09:52:16;27.20;99.90
5792;DHT22;2922;53.482;10.006;2023-06-26T09:54:45;27.00;99.90
5792;DHT22;2922;53.482;10.006;2023-06-26T09:57:12;26.90;99.90
5792;DHT22;2922;53.482;10.006;2023-06-26T09:59:39;26.90;99.90
5792;DHT22;2922;53.482;10.006;2023-06-26T10:02:05;26.70;99.90
5792;DHT22;2922;53.482;10.006;2023-06-26T10:04:32;26.60;99.90
5792;DHT22;2922;53.482;10.006;2023-06-26T10:06:58;26.30;99.90
5792;DHT22;2922;53.482;10.006;2023-06-26T10:09:27;26.10;99.90
5792;DHT22;2922;53.482;10.006;2023-06-26T10:14:33;25.50;99.90
5792;DHT22;2922;53.482;10.006;2023-06-26T10:17:02;25.20;99.90
5792;DHT22;2922;53.482;10.006;2023-06-26T10:19:30;25.00;99.90
5792;DHT22;2922;53.482;10.006;2023-06-26T10:21:58;24.60;99.90
5792;DHT22;2922;53.482;10.006;2023-06-26T10:24:26;24.10;99.90
5792;DHT22;2922;53.482;10.006;2023-06-26T10:26:59;23.50;99.90
5792;DHT22;2922;53.482;10.006;2023-06-26T10:29:25;23.00;99.90
5792;DHT22;2922;53.482;10.006;2023-06-26T10:31:54;22.70;99.90
5792;DHT22;2922;53.482;10.006;2023-06-26T10:34:21;22.50;99.90
5792;DHT22;2922;53.482;10.006;2023-06-26T10:36:46;22.50;99.90
5792;DHT22;2922;53.482;10.006;2023-06-26T10:39:13;22.40;99.90
5792;DHT22;2922;53.482;10.006;2023-06-26T10:41:40;22.40;99.90
5792;DHT22;2922;53.482;10.006;2023-06-26T10:44:10;22.10;99.90
5792;DHT22;2922;53.482;10.006;2023-06-26T10:46:49;22.10;99.90
5792;DHT22;2922;53.482;10.006;2023-06-26T10:49:15;21.90;99.90
5792;DHT22;2922;53.482;10.006;2023-06-26T10:51:50;21.90;99.90
5792;DHT22;2922;53.482;10.006;2023-06-26T10:54:18;21.90;99.90
5792;DHT22;2922;53.482;10.006;2023-06-26T10:56:46;21.90;99.90
5792;DHT22;2922;53.482;10.006;2023-06-26T10:59:21;21.80;99.90
5792;DHT22;2922;53.482;10.006;2023-06-26T11:01:55;21.70;99.90
5792;DHT22;2922;53.482;10.006;2023-06-26T11:07:24;21.70;99.90
5792;DHT22;2922;53.482;10.006;2023-06-26T11:12:40;21.80;99.90
5792;DHT22;2922;53.482;10.006;2023-06-26T11:15:13;21.90;99.90
5792;DHT22;2922;53.482;10.006;2023-06-26T11:17:39;22.10;99.90
5792;DHT22;2922;53.482;10.006;2023-06-26T11:20:13;22.20;99.90
5792;DHT22;2922;53.482;10.006;2023-06-26T11:22:42;22.40;99.90
5792;DHT22;2922;53.482;10.006;2023-06-26T11:25:09;22.70;99.90
5792;DHT22;2922;53.482;10.006;2023-06-26T11:30:11;22.30;99.90
5792;DHT22;2922;53.482;10.006;2023-06-26T11:32:47;22.20;99.90
5792;DHT22;2922;53.482;10.006;2023-06-26T11:35:13;22.40;99.90
5792;DHT22;2922;53.482;10.006;2023-06-26T11:37:38;22.50;99.90
5792;DHT22;2922;53.482;10.006;2023-06-26T11:40:18;22.50;99.90
5792;DHT22;2922;53.482;10.006;2023-06-26T11:42:44;22.90;99.90
5792;DHT22;2922;53.482;10.006;2023-06-26T11:45:10;23.20;99.90
5792;DHT22;2922;53.482;10.006;2023-06-26T11:47:39;23.20;99.90
5792;DHT22;2922;53.482;10.006;2023-06-26T11:50:04;23.30;99.90
5792;DHT22;2922;53.482;10.006;2023-06-26T11:52:33;23.10;99.90
5792;DHT22;2922;53.482;10.006;2023-06-26T11:54:58;23.10;99.90
5792;DHT22;2922;53.482;10.006;2023-06-26T11:57:24;23.30;99.90
5792;DHT22;2922;53.482;10.006;2023-06-26T11:59:50;23.70;99.90
5792;DHT22;2922;53.482;10.006;2023-06-26T12:02:17;23.80;99.90
5792;DHT22;2922;53.482;10.006;2023-06-26T12:04:44;23.70;99.90
5792;DHT22;2922;53.482;10.006;2023-06-26T12:07:10;23.50;99.90
5792;DHT22;2922;53.482;10.006;2023-06-26T12:09:43;23.00;99.90
5792;DHT22;2922;53.482;10.006;2023-06-26T12:12:11;23.00;99.90
5792;DHT22;2922;53.482;10.006;2023-06-26T12:14:37;22.70;99.90
5792;DHT22;2922;53.482;10.006;2023-06-26T12:17:13;22.80;99.90
5792;DHT22;2922;53.482;10.006;2023-06-26T12:19:42;23.10;99.90
5792;DHT22;2922;53.482;10.006;2023-06-26T12:22:09;23.10;99.90
5792;DHT22;2922;53.482;10.006;2023-06-26T12:24:39;23.60;99.90
5792;DHT22;2922;53.482;10.006;2023-06-26T12:27:13;24.00;99.90
5792;DHT22;2922;53.482;10.006;2023-06-26T12:29:41;23.90;99.90
5792;DHT22;2922;53.482;10.006;2023-06-26T12:32:10;23.70;99.90
5792;DHT22;2922;53.482;10.006;2023-06-26T12:34:37;23.90;99.90
5792;DHT22;2922;53.482;10.006;2023-06-26T12:37:10;24.00;99.90
5792;DHT22;2922;53.482;10.006;2023-06-26T12:39:50;24.30;99.90
5792;DHT22;2922;53.482;10.006;2023-06-26T12:42:26;24.40;99.90
5792;DHT22;2922;53.482;10.006;2023-06-26T12:44:53;24.20;99.90
5792;DHT22;2922;53.482;10.006;2023-06-26T12:47:25;24.50;99.90
5792;DHT22;2922;53.482;10.006;2023-06-26T12:49:52;24.90;99.90
5792;DHT22;2922;53.482;10.006;2023-06-26T12:52:18;24.90;99.90
5792;DHT22;2922;53.482;10.006;2023-06-26T12:54:45;24.80;99.90
5792;DHT22;2922;53.482;10.006;2023-06-26T12:57:12;24.70;99.90
5792;DHT22;2922;53.482;10.006;2023-06-26T12:59:39;24.60;99.90
5792;DHT22;2922;53.482;10.006;2023-06-26T13:02:05;24.90;99.90
5792;DHT22;2922;53.482;10.006;2023-06-26T13:04:32;24.70;99.90
5792;DHT22;2922;53.482;10.006;2023-06-26T13:06:58;24.80;99.90
5792;DHT22;2922;53.482;10.006;2023-06-26T13:09:24;24.90;99.90
5792;DHT22;2922;53.482;10.006;2023-06-26T13:11:51;25.10;99.90
5792;DHT22;2922;53.482;10.006;2023-06-26T13:14:17;24.50;99.90
5792;DHT22;2922;53.482;10.006;2023-06-26T13:16:42;24.60;99.90
5792;DHT22;2922;53.482;10.006;2023-06-26T13:19:08;24.50;99.90
5792;DHT22;2922;53.482;10.006;2023-06-26T13:21:34;24.50;99.90
5792;DHT22;2922;53.482;10.006;2023-06-26T13:24:00;24.50;99.90
5792;DHT22;2922;53.482;10.006;2023-06-26T13:26:26;24.40;99.90
5792;DHT22;2922;53.482;10.006;2023-06-26T13:28:54;24.20;99.90
5792;DHT22;2922;53.482;10.006;2023-06-26T13:31:20;24.10;99.90
5792;DHT22;2922;53.482;10.006;2023-06-26T13:33:46;24.10;99.90
5792;DHT22;2922;53.482;10.006;2023-06-26T13:36:17;24.20;99.90
5792;DHT22;2922;53.482;10.006;2023-06-26T13:38:43;24.30;99.90
5792;DHT22;2922;53.482;10.006;2023-06-26T13:41:09;24.50;99.90
5792;DHT22;2922;53.482;10.006;2023-06-26T13:43:34;24.40;99.90
5792;DHT22;2922;53.482;10.006;2023-06-26T13:46:00;24.10;99.90
5792;DHT22;2922;53.482;10.006;2023-06-26T13:48:26;24.10;99.90
5792;DHT22;2922;53.482;10.006;2023-06-26T13:50:52;24.00;99.90
5792;DHT22;2922;53.482;10.006;2023-06-26T13:53:18;23.90;99.90
5792;DHT22;2922;53.482;10.006;2023-06-26T13:55:43;23.90;99.90
5792;DHT22;2922;53.482;10.006;2023-06-26T13:58:09;24.20;99.90
5792;DHT22;2922;53.482;10.006;2023-06-26T14:00:36;23.90;99.90
5792;DHT22;2922;53.482;10.006;2023-06-26T14:03:03;23.70;99.90
5792;DHT22;2922;53.482;10.006;2023-06-26T14:05:30;23.90;99.90
5792;DHT22;2922;53.482;10.006;2023-06-26T14:07:56;23.80;99.90
5792;DHT22;2922;53.482;10.006;2023-06-26T14:10:22;23.90;99.90
5792;DHT22;2922;53.482;10.006;2023-06-26T14:12:48;24.30;99.90
5792;DHT22;2922;53.482;10.006;2023-06-26T14:15:14;24.40;99.90
5792;DHT22;2922;53.482;10.006;2023-06-26T14:17:39;24.60;99.90
5792;DHT22;2922;53.482;10.006;2023-06-26T14:20:06;24.30;97.70
5792;DHT22;2922;53.482;10.006;2023-06-26T14:22:35;24.10;99.90
5792;DHT22;2922;53.482;10.006;2023-06-26T14:25:02;24.10;99.90
5792;DHT22;2922;53.482;10.006;2023-06-26T14:27:28;23.90;99.90
5792;DHT22;2922;53.482;10.006;2023-06-26T14:29:53;23.60;97.30
5792;DHT22;2922;53.482;10.006;2023-06-26T14:32:19;23.70;99.90
5792;DHT22;2922;53.482;10.006;2023-06-26T14:34:44;23.80;99.10
5792;DHT22;2922;53.482;10.006;2023-06-26T14:37:10;23.90;99.90
5792;DHT22;2922;53.482;10.006;2023-06-26T14:39:35;23.90;99.00
5792;DHT22;2922;53.482;10.006;2023-06-26T14:42:04;23.90;98.50
5792;DHT22;2922;53.482;10.006;2023-06-26T14:44:29;23.90;99.90
5792;DHT22;2922;53.482;10.006;2023-06-26T14:46:55;23.70;98.60
5792;DHT22;2922;53.482;10.006;2023-06-26T14:49:21;23.80;99.90
5792;DHT22;2922;53.482;10.006;2023-06-26T14:51:46;23.90;99.90
5792;DHT22;2922;53.482;10.006;2023-06-26T14:54:12;23.50;87.90
5792;DHT22;2922;53.482;10.006;2023-06-26T14:56:37;23.50;87.00
5792;DHT22;2922;53.482;10.006;2023-06-26T14:59:03;23.40;79.00
5792;DHT22;2922;53.482;10.006;2023-06-26T15:01:28;23.20;75.90
5792;DHT22;2922;53.482;10.006;2023-06-26T15:03:55;23.20;81.00
5792;DHT22;2922;53.482;10.006;2023-06-26T15:06:21;23.00;81.60
5792;DHT22;2922;53.482;10.006;2023-06-26T15:08:46;22.90;76.10
5792;DHT22;2922;53.482;10.006;2023-06-26T15:11:12;22.90;76.40
5792;DHT22;2922;53.482;10.006;2023-06-26T15:13:37;23.10;83.00
5792;DHT22;2922;53.482;10.006;2023-06-26T15:16:03;23.20;71.60
5792;DHT22;2922;53.482;10.006;2023-06-26T15:18:28;23.30;68.20
5792;DHT22;2922;53.482;10.006;2023-06-26T15:20:54;23.30;69.00
5792;DHT22;2922;53.482;10.006;2023-06-26T15:23:20;23.20;68.70
5792;DHT22;2922;53.482;10.006;2023-06-26T15:25:45;23.20;81.70
5792;DHT22;2922;53.482;10.006;2023-06-26T15:28:11;23.10;85.10
5792;DHT22;2922;53.482;10.006;2023-06-26T15:30:36;22.70;80.90
5792;DHT22;2922;53.482;10.006;2023-06-26T15:33:02;22.50;87.10
5792;DHT22;2922;53.482;10.006;2023-06-26T15:35:27;22.60;91.00
5792;DHT22;2922;53.482;10.006;2023-06-26T15:37:53;22.50;91.40
5792;DHT22;2922;53.482;10.006;2023-06-26T15:40:19;22.30;81.30
5792;DHT22;2922;53.482;10.006;2023-06-26T15:42:49;22.40;89.20
5792;DHT22;2922;53.482;10.006;2023-06-26T15:45:15;22.50;90.70
5792;DHT22;2922;53.482;10.006;2023-06-26T15:47:43;22.60;81.50
5792;DHT22;2922;53.482;10.006;2023-06-26T15:50:09;22.50;84.20
5792;DHT22;2922;53.482;10.006;2023-06-26T15:52:35;22.50;90.80
5792;DHT22;2922;53.482;10.006;2023-06-26T15:55:01;22.40;90.00
5792;DHT22;2922;53.482;10.006;2023-06-26T15:57:27;22.40;93.90